Flugplatz Donzdorf

Für EDPM sind keine METAR/TAF Berichte vorhanden.
Es werden die Flugwettermeldungen vom Flugplatz Stuttgart in 45 km Entfernung angezeigt.

Bericht für EDDS

vom 30.09. um 21:20 UTC

variable Windrichtung mit 2 kt

Sichtweite 10 km oder mehr

gute Sicht, keine Wolken < 5000 ft, keine CB, keine Wettererscheinungen (CAVOK)

Temperatur 8.0°C

Taupunkt 5.0°C

Luftfeuchtigkeit 81%

Luftdruck 1013 hPa

EDDS 302120Z AUTO VRB02KT CAVOK 08/05 Q1013

Prognose für EDDS

vom 30.09. um 17:00 UTC

Am 30.09. zwischen 18:00 UTC und 00:00 UTC

variable Windrichtung mit 3 kt

Sichtweite 10 km oder mehr

keine signifikanten Wettererscheinungen

keine Wolken


Zwischen 00:00 und 04:00 UTC übergehend zu

Wind 5 kt aus 200°

Sichtweite 10 km oder mehr

keine signifikanten Wettererscheinungen

keine Wolken


Zwischen 06:00 und 08:00 UTC übergehend zu

Wind 10 kt aus 200°

Sichtweite 10 km oder mehr

keine signifikanten Wettererscheinungen

keine Wolken


Zwischen 08:00 UTC und 12:00 UTC zeitweise mit einer Wahrscheinlichkeit von 30%

Wind 15 kt aus 220° in Böen 25 kt

Regen

TAF EDDS 301700Z 3018/0118 VRB03KT CAVOK BECMG 0100/0104 20005KT BECMG 0106/0108 20010KT PROB30 TEMPO 0108/0112 22015G25KT RA
Impressum